Time;durP1;ratioP1;P1;durP2;ratioP2;P2;SDS_P1;SDS_P2;PMS_P1;PMS_P2;Temp;Humidity;BMP_temperature;BMP_pressure;BME280_temperature;BME280_humidity;BME280_pressure;Samples;Min_cycle;Max_cycle;Signal;HPM_P1;HPM_P2
2023/12/12 00:02:13;;;;;;;57.17;42.70;;;;;;;;;;5062265;28;20079;-70
2023/12/12 00:04:39;;;;;;;54.45;39.45;;;;;;;;;;5079709;28;20047;-70
2023/12/12 00:07:05;;;;;;;50.25;37.72;;;18.40;89.40;;;;;;5085793;28;20455;-70
2023/12/12 00:09:31;;;;;;;46.58;35.63;;;;;;;;;;5110135;28;20039;-71
2023/12/12 00:11:57;;;;;;;44.38;34.55;;;;;;;;;;5094671;28;20044;-70
2023/12/12 00:14:23;;;;;;;45.42;33.78;;;;;;;;;;5074582;28;20048;-71
2023/12/12 00:16:51;;;;;;;42.97;33.25;;;;;;;;;;5093032;28;20073;-70
2023/12/12 00:19:17;;;;;;;42.88;30.75;;;;;;;;;;5092273;28;20040;-71
2023/12/12 00:21:43;;;;;;;38.60;29.25;;;18.10;89.60;;;;;;5093352;28;20044;-70
2023/12/12 00:24:09;;;;;;;36.67;26.90;;;;;;;;;;5097000;28;20042;-70
2023/12/12 00:26:35;;;;;;;37.13;26.17;;;;;;;;;;5095223;28;20382;-70
2023/12/12 00:29:01;;;;;;;34.22;24.75;;;;;;;;;;5073653;28;20600;-70
2023/12/12 00:31:28;;;;;;;32.65;23.00;;;;;;;;;;5074728;28;20072;-69
2023/12/12 00:33:54;;;;;;;31.13;22.73;;;;;;;;;;5095718;27;20043;-69
2023/12/12 00:36:20;;;;;;;28.75;21.25;;;;;;;;;;5109411;28;20035;-71
2023/12/12 00:38:46;;;;;;;27.48;20.33;;;;;;;;;;5067935;28;20119;-70
2023/12/12 00:41:12;;;;;;;26.35;19.83;;;;;;;;;;5094155;28;20044;-71
2023/12/12 00:43:40;;;;;;;25.00;17.58;;;17.80;87.40;;;;;;5108003;28;20043;-69
2023/12/12 00:46:05;;;;;;;24.55;17.45;;;18.00;90.00;;;;;;5043416;28;20078;-70
2023/12/12 00:48:31;;;;;;;24.15;16.83;;;;;;;;;;5091656;28;20263;-71
2023/12/12 00:50:58;;;;;;;22.95;16.48;;;;;;;;;;5074245;28;20044;-70
2023/12/12 00:53:24;;;;;;;24.88;16.10;;;;;;;;;;5075016;28;20055;-70
2023/12/12 00:55:50;;;;;;;21.35;15.38;;;;;;;;;;5092708;27;20815;-70
2023/12/12 00:58:16;;;;;;;20.90;14.55;;;;;;;;;;5080319;28;20082;-70
2023/12/12 01:00:42;;;;;;;21.40;14.27;;;;;;;;;;5082165;28;20040;-70
2023/12/12 01:03:08;;;;;;;19.33;13.35;;;;;;;;;;5065827;28;20039;-69
2023/12/12 01:05:34;;;;;;;17.85;12.43;;;;;;;;;;5086038;28;20048;-69
2023/12/12 01:08:01;;;;;;;18.23;12.30;;;;;;;;;;5074245;28;20498;-70
2023/12/12 01:10:26;;;;;;;17.48;12.25;;;17.80;90.00;;;;;;5078921;28;20432;-70
2023/12/12 01:12:52;;;;;;;17.60;11.32;;;;;;;;;;5071355;28;20089;-70
2023/12/12 01:15:19;;;;;;;16.00;10.05;;;;;;;;;;5098572;28;20409;-68
2023/12/12 01:17:45;;;;;;;14.38;10.07;;;;;;;;;;5083823;28;20105;-70
2023/12/12 01:20:11;;;;;;;15.55;10.02;;;;;;;;;;5073964;28;20489;-70
2023/12/12 01:22:37;;;;;;;14.77;9.25;;;;;;;;;;5075104;28;20036;-70
2023/12/12 01:25:03;;;;;;;14.07;8.90;;;;;;;;;;5073182;28;20079;-70
2023/12/12 01:27:29;;;;;;;12.90;8.05;;;;;;;;;;5056476;28;20073;-69
2023/12/12 01:29:55;;;;;;;13.23;8.32;;;;;;;;;;5070447;28;20047;-70
2023/12/12 01:32:22;;;;;;;14.57;8.02;;;;;;;;;;5070511;28;20413;-68
2023/12/12 01:34:47;;;;;;;10.77;7.03;;;18.00;89.70;;;;;;5057377;28;20109;-69
2023/12/12 01:37:13;;;;;;;11.32;7.13;;;17.80;89.60;;;;;;5098295;28;20047;-70
2023/12/12 01:39:39;;;;;;;13.05;7.15;;;;;;;;;;5112770;28;20066;-70
2023/12/12 01:42:07;;;;;;;12.48;7.28;;;;;;;;;;5109900;28;20083;-71
2023/12/12 01:44:33;;;;;;;10.75;6.47;;;;;;;;;;5092098;28;20048;-70
2023/12/12 01:46:59;;;;;;;10.82;6.60;;;;;;;;;;5095646;28;20078;-70
2023/12/12 01:49:25;;;;;;;10.13;5.97;;;;;;;;;;5085706;28;20047;-70
2023/12/12 01:51:51;;;;;;;11.40;6.25;;;;;;;;;;5103765;28;20048;-70
2023/12/12 01:54:17;;;;;;;8.90;5.47;;;17.50;90.00;;;;;;5073888;28;20147;-70
2023/12/12 01:56:44;;;;;;;10.10;6.00;;;;;;;;;;5086001;28;20126;-68
2023/12/12 01:59:10;;;;;;;8.35;5.05;;;17.60;90.00;;;;;;5056458;28;20071;-70
2023/12/12 02:01:36;;;;;;;10.07;4.88;;;;;;;;;;5097927;28;20044;-71
2023/12/12 02:04:02;;;;;;;9.57;5.22;;;;;;;;;;5112614;28;20383;-70
2023/12/12 02:06:28;;;;;;;9.57;4.55;;;;;;;;;;5087911;28;20127;-71
2023/12/12 02:08:55;;;;;;;7.95;4.40;;;;;;;;;;5073279;28;20056;-70
2023/12/12 02:11:23;;;;;;;7.72;4.28;;;17.30;90.00;;;;;;5091936;28;20048;-71
2023/12/12 02:13:49;;;;;;;8.48;4.25;;;;;;;;;;5106266;28;20044;-70
2023/12/12 02:16:17;;;;;;;7.60;3.80;;;;;;;;;;5056363;28;20127;-70
2023/12/12 02:18:43;;;;;;;6.85;3.70;;;;;;;;;;5077620;28;20055;-70
2023/12/12 02:21:09;;;;;;;6.82;3.60;;;;;;;;;;5095709;28;20040;-70
2023/12/12 02:23:35;;;;;;;7.03;3.40;;;17.20;90.10;;;;;;5095452;28;20063;-70
2023/12/12 02:26:01;;;;;;;7.65;3.33;;;;;;;;;;5103638;28;20410;-69
2023/12/12 02:28:27;;;;;;;7.63;3.92;;;;;;;;;;5088232;28;20043;-70
2023/12/12 02:30:54;;;;;;;6.53;3.28;;;;;;;;;;5080037;28;20044;-71
2023/12/12 02:33:19;;;;;;;7.03;3.00;;;17.10;90.10;;;;;;5076471;28;20043;-70
2023/12/12 02:35:45;;;;;;;6.95;2.90;;;;;;;;;;5058649;28;20043;-70
2023/12/12 02:38:13;;;;;;;7.35;2.90;;;;;;;;;;5114536;28;20067;-70
2023/12/12 02:40:39;;;;;;;6.22;2.95;;;;;;;;;;5086539;28;20044;-70
2023/12/12 02:43:05;;;;;;;5.65;2.53;;;;;;;;;;5069591;28;20040;-70
2023/12/12 02:45:31;;;;;;;7.28;2.92;;;16.90;90.10;;;;;;5072578;28;20532;-70
2023/12/12 02:47:57;;;;;;;5.68;2.97;;;;;;;;;;5076606;28;20123;-70
2023/12/12 02:50:24;;;;;;;5.63;2.50;;;;;;;;;;5096045;28;20087;-70
2023/12/12 02:52:50;;;;;;;5.43;2.75;;;;;;;;;;5088961;28;20660;-70
2023/12/12 02:55:16;;;;;;;5.18;2.40;;;;;;;;;;5060996;28;20130;-70
2023/12/12 02:57:43;;;;;;;6.97;2.95;;;;;;;;;;5069838;28;20036;-70
2023/12/12 03:00:09;;;;;;;6.40;2.67;;;16.90;87.30;;;;;;5071152;28;20502;-70
2023/12/12 03:02:35;;;;;;;5.32;2.38;;;;;;;;;;5071738;28;20047;-69
2023/12/12 03:05:03;;;;;;;6.18;2.40;;;;;;;;;;5112839;28;20039;-69
2023/12/12 03:07:29;;;;;;;6.47;2.60;;;;;;;;;;5081747;28;20466;-70
2023/12/12 03:09:55;;;;;;;6.30;2.40;;;16.70;90.30;;;;;;5076138;28;20048;-70
2023/12/12 03:12:21;;;;;;;5.30;2.30;;;;;;;;;;5096747;28;20448;-70
2023/12/12 03:14:47;;;;;;;4.55;2.13;;;;;;;;;;5104546;28;20072;-70
2023/12/12 03:17:13;;;;;;;5.82;2.20;;;;;;;;;;5083563;28;20047;-70
2023/12/12 03:19:39;;;;;;;5.50;2.15;;;16.70;88.80;;;;;;5076456;28;20138;-70
2023/12/12 03:22:05;;;;;;;6.47;2.15;;;16.60;90.40;;;;;;5076072;28;20446;-69
2023/12/12 03:31:35;;;;;;;4.82;1.98;;;;;;;;;;5098364;28;20084;-71
2023/12/12 03:34:00;;;;;;;5.78;1.98;;;16.40;90.50;;;;;;5094107;28;20051;-72
2023/12/12 03:36:26;;;;;;;5.45;1.80;;;16.40;90.30;;;;;;5096100;27;20040;-70
2023/12/12 03:38:52;;;;;;;4.80;1.90;;;;;;;;;;5095454;28;20119;-71
2023/12/12 03:41:18;;;;;;;4.90;1.80;;;16.70;89.60;;;;;;5112411;28;20071;-71
2023/12/12 03:43:44;;;;;;;4.55;1.90;;;16.40;89.10;;;;;;5076666;28;20079;-71
2023/12/12 03:46:13;;;;;;;5.03;1.73;;;16.40;87.30;;;;;;5093416;27;20028;-70
2023/12/12 03:48:39;;;;;;;6.32;2.20;;;;;;;;;;5087169;28;20126;-70
2023/12/12 03:51:08;;;;;;;4.35;1.98;;;16.60;88.60;;;;;;5102738;28;20401;-70
2023/12/12 03:53:34;;;;;;;4.28;1.70;;;;;;;;;;5092964;28;20051;-70
2023/12/12 03:56:00;;;;;;;3.92;1.88;;;;;;;;;;5094329;28;20051;-70
2023/12/12 03:58:26;;;;;;;5.13;1.63;;;;;;;;;;5094518;28;20040;-67
2023/12/12 04:00:52;;;;;;;4.85;1.75;;;;;;;;;;5102960;27;20055;-69
2023/12/12 04:03:18;;;;;;;6.18;1.77;;;;;;;;;;5104359;28;20040;-69
2023/12/12 04:05:45;;;;;;;5.40;1.70;;;;;;;;;;5092547;27;20169;-69
2023/12/12 04:08:11;;;;;;;5.22;1.90;;;;;;;;;;5075043;28;20528;-69
2023/12/12 04:10:37;;;;;;;3.15;1.33;;;;;;;;;;5073086;28;20043;-70
2023/12/12 04:13:03;;;;;;;6.03;1.65;;;16.30;90.70;;;;;;5076176;28;20055;-70
2023/12/12 04:15:29;;;;;;;5.82;1.60;;;16.30;90.80;;;;;;5113544;28;20108;-70
2023/12/12 04:17:55;;;;;;;3.95;1.48;;;16.30;90.80;;;;;;5071260;28;20048;-70
2023/12/12 04:20:20;;;;;;;4.85;1.60;;;16.10;90.80;;;;;;5066732;28;20054;-69
2023/12/12 04:22:47;;;;;;;4.53;1.60;;;;;;;;;;5046729;28;20393;-69
2023/12/12 04:25:12;;;;;;;3.42;1.60;;;16.10;90.70;;;;;;5093800;28;20058;-70
2023/12/12 04:27:38;;;;;;;4.65;1.45;;;16.10;90.80;;;;;;5056781;28;20044;-70
2023/12/12 04:30:04;;;;;;;4.75;1.67;;;16.10;89.90;;;;;;5091856;28;20074;-70
2023/12/12 04:32:31;;;;;;;5.03;1.60;;;;;;;;;;5077153;28;20062;-70
2023/12/12 04:34:57;;;;;;;3.55;1.58;;;;;;;;;;5085221;28;20105;-69
2023/12/12 04:37:23;;;;;;;3.67;1.58;;;;;;;;;;5111808;28;20039;-70
2023/12/12 04:39:49;;;;;;;3.97;1.73;;;;;;;;;;5066872;28;20389;-70
2023/12/12 04:42:15;;;;;;;3.78;1.30;;;16.00;90.80;;;;;;5067293;28;20040;-69
2023/12/12 04:44:42;;;;;;;5.70;1.88;;;;;;;;;;5050997;27;20044;-71
2023/12/12 04:47:08;;;;;;;4.20;1.40;;;;;;;;;;5071795;28;20050;-70
2023/12/12 04:49:34;;;;;;;5.43;1.55;;;;;;;;;;5077887;28;20090;-70
2023/12/12 04:52:01;;;;;;;4.95;1.70;;;;;;;;;;5054293;28;20044;-68
2023/12/12 04:54:27;;;;;;;4.70;1.60;;;;;;;;;;5074387;28;20079;-69
2023/12/12 04:56:53;;;;;;;4.13;1.30;;;;;;;;;;5074804;28;20058;-69
2023/12/12 04:59:20;;;;;;;6.93;1.60;;;;;;;;;;5077917;28;20132;-68
2023/12/12 05:01:46;;;;;;;4.75;1.60;;;;;;;;;;5076000;28;20047;-68
2023/12/12 05:04:12;;;;;;;3.72;1.45;;;;;;;;;;5077926;28;20040;-68
2023/12/12 05:06:38;;;;;;;4.53;1.60;;;;;;;;;;5076242;28;20073;-70
2023/12/12 05:09:04;;;;;;;4.65;1.52;;;;;;;;;;5094630;28;20424;-69
2023/12/12 05:11:30;;;;;;;4.20;1.27;;;15.90;91.00;;;;;;5091624;28;20058;-70
2023/12/12 05:13:59;;;;;;;5.03;1.50;;;;;;;;;;5040068;28;20123;-69
2023/12/12 05:16:25;;;;;;;4.95;1.80;;;15.80;90.90;;;;;;5063951;28;20117;-70
2023/12/12 05:18:51;;;;;;;4.03;1.40;;;;;;;;;;5075740;28;20043;-70
2023/12/12 05:21:21;;;;;;;4.75;1.50;;;;;;;;;;5111519;28;20500;-69
2023/12/12 05:23:47;;;;;;;4.20;1.50;;;;;;;;;;5078201;28;20050;-69
2023/12/12 05:26:13;;;;;;;5.85;1.80;;;;;;;;;;5077688;28;20050;-70
2023/12/12 05:28:39;;;;;;;3.22;1.45;;;;;;;;;;5072214;28;20088;-70
2023/12/12 05:31:06;;;;;;;4.97;1.77;;;;;;;;;;5108655;28;20126;-70
2023/12/12 05:33:32;;;;;;;3.83;1.65;;;;;;;;;;5073421;28;20126;-70
2023/12/12 05:35:59;;;;;;;5.00;1.67;;;;;;;;;;5067746;28;20075;-70
2023/12/12 05:38:25;;;;;;;9.32;1.52;;;;;;;;;;5073069;28;20036;-70
2023/12/12 05:40:51;;;;;;;5.53;1.75;;;;;;;;;;5091434;28;20397;-70
2023/12/12 05:43:17;;;;;;;5.38;1.80;;;;;;;;;;5056333;28;20121;-69
2023/12/12 05:45:43;;;;;;;5.18;1.90;;;;;;;;;;5073649;28;20100;-70
2023/12/12 05:48:09;;;;;;;6.45;1.88;;;;;;;;;;5087974;28;20500;-69
2023/12/12 05:50:36;;;;;;;5.90;1.95;;;;;;;;;;5052206;28;20052;-70
2023/12/12 05:53:02;;;;;;;4.65;1.38;;;;;;;;;;5103080;28;20083;-70
2023/12/12 05:55:29;;;;;;;5.93;1.98;;;15.70;89.00;;;;;;5096153;28;20367;-70
2023/12/12 05:57:55;;;;;;;4.93;1.63;;;;;;;;;;5072783;28;20040;-70
2023/12/12 06:00:21;;;;;;;5.65;1.60;;;;;;;;;;5097781;28;20040;-70
2023/12/12 06:02:47;;;;;;;4.70;1.58;;;15.60;91.10;;;;;;5077375;28;20393;-69
2023/12/12 06:05:13;;;;;;;4.45;1.60;;;;;;;;;;5059574;28;20467;-70
2023/12/12 06:07:41;;;;;;;4.25;1.88;;;;;;;;;;5086460;28;20104;-72
2023/12/12 06:10:08;;;;;;;5.82;1.77;;;15.60;91.10;;;;;;5085214;28;20056;-70
2023/12/12 06:12:34;;;;;;;4.32;1.80;;;;;;;;;;5080941;28;20408;-69
2023/12/12 06:15:01;;;;;;;5.47;1.60;;;;;;;;;;5095188;28;20044;-70
2023/12/12 06:17:27;;;;;;;5.82;1.75;;;;;;;;;;5076953;28;20052;-70
2023/12/12 06:19:53;;;;;;;4.50;1.92;;;;;;;;;;5081529;28;20047;-70
2023/12/12 06:22:19;;;;;;;3.28;1.55;;;;;;;;;;5064587;28;20051;-69
2023/12/12 06:24:45;;;;;;;5.50;1.70;;;;;;;;;;5060970;28;20076;-70
2023/12/12 06:27:12;;;;;;;5.78;1.90;;;;;;;;;;5079871;28;20040;-70
2023/12/12 06:29:38;;;;;;;4.55;1.70;;;;;;;;;;5059737;28;20043;-70
2023/12/12 06:32:05;;;;;;;5.00;1.75;;;15.60;91.00;;;;;;5059002;28;20090;-70
2023/12/12 06:34:31;;;;;;;5.20;1.98;;;;;;;;;;5069752;28;20044;-69
2023/12/12 06:36:57;;;;;;;4.05;1.70;;;;;;;;;;5087752;28;20040;-70
2023/12/12 06:39:25;;;;;;;5.45;1.80;;;;;;;;;;5056131;28;20078;-70
2023/12/12 06:41:51;;;;;;;5.32;1.90;;;;;;;;;;5049124;28;20096;-70
2023/12/12 06:44:17;;;;;;;4.78;1.90;;;15.50;91.10;;;;;;5067556;28;20397;-70
2023/12/12 06:46:43;;;;;;;4.38;1.83;;;;;;;;;;5070805;28;20055;-69
2023/12/12 06:49:09;;;;;;;4.57;1.85;;;;;;;;;;5086767;28;20040;-70
2023/12/12 06:51:35;;;;;;;4.60;2.00;;;;;;;;;;5061527;28;20046;-69
2023/12/12 06:54:03;;;;;;;4.53;2.10;;;;;;;;;;5060981;28;20045;-70
2023/12/12 06:56:30;;;;;;;7.03;2.60;;;;;;;;;;5072789;28;20148;-70
2023/12/12 06:58:57;;;;;;;7.38;2.63;;;;;;;;;;5059564;28;20123;-70
2023/12/12 07:01:23;;;;;;;5.65;2.35;;;;;;;;;;5060683;28;20071;-69
2023/12/12 07:03:49;;;;;;;6.63;2.72;;;;;;;;;;5075495;28;20043;-70
2023/12/12 07:06:20;;;;;;;5.53;2.80;;;15.40;91.10;;;;;;5102853;27;20032;-70
2023/12/12 07:08:46;;;;;;;8.20;2.80;;;;;;;;;;5098513;27;20052;-68
2023/12/12 07:11:13;;;;;;;10.27;2.92;;;;;;;;;;5109377;28;20113;-70
2023/12/12 07:13:39;;;;;;;8.00;2.90;;;;;;;;;;5092289;28;20078;-69
2023/12/12 07:16:05;;;;;;;6.55;2.97;;;15.30;91.10;;;;;;5065333;28;20063;-71
2023/12/12 07:18:32;;;;;;;7.80;2.65;;;;;;;;;;5094115;28;20042;-69
2023/12/12 07:20:59;;;;;;;9.75;3.47;;;;;;;;;;5076217;28;20048;-68
2023/12/12 07:23:25;;;;;;;64.43;21.00;;;;;;;;;;5053508;28;20054;-68
2023/12/12 07:25:51;;;;;;;160.70;32.97;;;;;;;;;;5078825;28;20047;-69
2023/12/12 07:28:17;;;;;;;203.07;66.68;;;;;;;;;;5111392;27;20488;-71
2023/12/12 07:30:44;;;;;;;177.55;109.72;;;;;;;;;;5110899;28;20111;-70
2023/12/12 07:33:11;;;;;;;127.95;81.43;;;15.20;91.20;;;;;;5095410;28;20044;-70
2023/12/12 07:35:37;;;;;;;150.88;84.60;;;;;;;;;;5076303;28;20102;-71
2023/12/12 07:38:04;;;;;;;108.72;74.30;;;;;;;;;;5108034;28;20516;-71
2023/12/12 07:40:30;;;;;;;75.53;60.97;;;;;;;;;;5063868;28;20085;-70
2023/12/12 07:42:57;;;;;;;87.35;57.75;;;15.60;91.10;;;;;;5097611;28;20040;-69
2023/12/12 07:45:23;;;;;;;77.82;54.40;;;15.80;91.00;;;;;;5094927;27;20197;-70
2023/12/12 07:47:49;;;;;;;73.50;54.25;;;;;;;;;;5061474;28;20560;-70
2023/12/12 07:50:17;;;;;;;73.40;49.83;;;;;;;;;;5099312;28;20071;-70
2023/12/12 07:52:43;;;;;;;63.03;46.22;;;;;;;;;;5100127;28;20051;-70
2023/12/12 07:55:09;;;;;;;62.78;44.33;;;;;;;;;;5086401;28;20113;-70
2023/12/12 07:57:36;;;;;;;68.07;42.67;;;16.40;87.90;;;;;;5080681;28;20794;-69
2023/12/12 08:00:06;;;;;;;70.22;53.10;;;16.30;90.40;;;;;;5093668;28;20043;-71
2023/12/12 08:02:32;;;;;;;93.97;85.30;;;;;;;;;;5093950;28;20040;-71
2023/12/12 08:04:59;;;;;;;84.00;75.28;;;;;;;;;;5084870;28;20109;-72
2023/12/12 08:07:25;;;;;;;75.53;68.38;;;;;;;;;;5075613;28;20035;-71
2023/12/12 08:09:51;;;;;;;69.47;62.80;;;16.70;88.20;;;;;;5059254;28;20105;-72
2023/12/12 08:12:17;;;;;;;61.85;56.10;;;;;;;;;;5107031;28;20043;-71
2023/12/12 08:14:43;;;;;;;61.88;56.10;;;17.00;88.60;;;;;;5076738;28;20567;-70
2023/12/12 08:17:10;;;;;;;56.97;51.47;;;;;;;;;;5076846;28;20055;-71
2023/12/12 08:19:36;;;;;;;53.13;48.33;;;;;;;;;;5075103;28;20512;-72
2023/12/12 08:22:02;;;;;;;53.28;48.38;;;;;;;;;;5062751;28;20035;-71
2023/12/12 08:24:28;;;;;;;49.67;44.70;;;;;;;;;;5087648;28;20089;-70
2023/12/12 08:26:54;;;;;;;47.22;43.03;;;;;;;;;;5095103;28;20381;-69
2023/12/12 08:29:20;;;;;;;51.15;46.10;;;;;;;;;;5092648;28;20040;-71
2023/12/12 08:31:47;;;;;;;47.38;42.90;;;;;;;;;;5075225;28;20449;-65
2023/12/12 08:34:12;;;;;;;44.05;39.47;;;17.30;87.90;;;;;;5089163;28;20062;-65
2023/12/12 08:36:40;;;;;;;39.95;35.80;;;;;;;;;;5109628;28;20481;-69
2023/12/12 08:39:07;;;;;;;36.13;32.72;;;;;;;;;;5111391;28;20520;-71
2023/12/12 08:41:33;;;;;;;38.90;35.13;;;;;;;;;;5092657;28;20108;-70
2023/12/12 08:44:00;;;;;;;35.55;32.25;;;17.30;85.90;;;;;;5109804;28;20051;-72
2023/12/12 08:46:29;;;;;;;35.13;31.92;;;17.10;85.10;;;;;;5083455;28;20133;-67
2023/12/12 08:48:55;;;;;;;96.60;86.28;;;17.20;88.60;;;;;;5065276;28;20054;-71
2023/12/12 08:51:22;;;;;;;246.65;220.05;;;17.10;87.20;;;;;;5111207;28;20040;-71
2023/12/12 08:53:48;;;;;;;155.32;139.20;;;;;;;;;;5092457;28;20093;-72
2023/12/12 08:56:15;;;;;;;137.50;122.85;;;;;;;;;;5079236;28;20036;-71
2023/12/12 08:58:41;;;;;;;128.32;115.03;;;;;;;;;;5092723;28;20118;-71
2023/12/12 09:01:07;;;;;;;120.07;107.22;;;;;;;;;;5087938;28;20072;-70
2023/12/12 09:03:33;;;;;;;110.57;99.00;;;;;;;;;;5110509;28;20888;-71
2023/12/12 09:05:59;;;;;;;88.80;79.88;;;;;;;;;;5092600;28;20424;-69
2023/12/12 09:08:26;;;;;;;81.07;73.05;;;;;;;;;;5092877;28;20405;-71
2023/12/12 09:10:52;;;;;;;74.15;66.53;;;;;;;;;;5091009;28;20406;-70
2023/12/12 09:13:19;;;;;;;69.00;62.33;;;;;;;;;;5074229;28;20040;-70
2023/12/12 09:15:45;;;;;;;63.20;56.75;;;;;;;;;;5088930;28;20396;-71
2023/12/12 09:18:11;;;;;;;56.20;50.55;;;;;;;;;;5075054;28;20114;-71
2023/12/12 09:20:37;;;;;;;55.38;49.78;;;17.20;87.70;;;;;;5082192;28;20047;-71
2023/12/12 09:23:02;;;;;;;50.05;45.15;;;17.20;87.70;;;;;;5057274;28;20490;-71
2023/12/12 09:25:29;;;;;;;46.55;41.90;;;;;;;;;;5056727;28;20048;-69
2023/12/12 09:27:55;;;;;;;43.42;38.95;;;;;;;;;;5095221;28;20339;-71
2023/12/12 09:30:21;;;;;;;41.42;37.38;;;;;;;;;;5084989;28;20118;-71
2023/12/12 09:32:48;;;;;;;47.78;43.08;;;;;;;;;;5093964;28;20040;-70
2023/12/12 09:35:15;;;;;;;176.68;158.48;;;;;;;;;;5101685;28;20126;-71
2023/12/12 09:37:41;;;;;;;93.55;84.32;;;16.90;87.30;;;;;;5116688;28;20047;-70
2023/12/12 09:40:09;;;;;;;83.22;75.25;;;;;;;;;;5079126;28;20045;-70
2023/12/12 09:42:35;;;;;;;76.05;68.55;;;16.90;84.50;;;;;;5083233;28;20050;-70
2023/12/12 09:45:03;;;;;;;75.53;68.07;;;17.00;85.50;;;;;;5060290;28;20040;-70
2023/12/12 09:47:32;;;;;;;72.43;65.20;;;16.90;83.50;;;;;;5080959;28;20138;-69
2023/12/12 09:49:59;;;;;;;67.13;60.42;;;;;;;;;;5099638;27;20089;-70
2023/12/12 09:52:25;;;;;;;60.70;54.88;;;;;;;;;;5061428;28;20520;-70
2023/12/12 09:54:51;;;;;;;53.90;48.60;;;17.00;83.90;;;;;;5087571;28;20047;-70
2023/12/12 09:57:18;;;;;;;53.40;47.95;;;;;;;;;;5096549;28;20393;-70
2023/12/12 09:59:44;;;;;;;48.53;43.83;;;;;;;;;;5081519;28;20051;-70
2023/12/12 10:02:15;;;;;;;46.22;41.58;;;16.60;84.70;;;;;;5106089;28;20048;-70
2023/12/12 10:04:42;;;;;;;44.40;39.90;;;16.90;84.20;;;;;;5063319;28;20048;-70
2023/12/12 10:07:08;;;;;;;41.75;37.80;;;17.00;87.50;;;;;;5063895;28;20420;-69
2023/12/12 10:09:34;;;;;;;39.38;35.42;;;;;;;;;;5062341;28;20164;-70
2023/12/12 10:12:00;;;;;;;38.33;34.25;;;;;;;;;;5059595;28;20417;-70
2023/12/12 10:14:39;;;;;;;99.90;88.85;;;17.00;83.90;;;;;;5098879;27;20036;-69
2023/12/12 10:17:10;;;;;;;79.07;63.47;;;;;;;;;;5084482;28;20097;-70
2023/12/12 10:19:36;;;;;;;70.10;60.88;;;;;;;;;;5077849;28;20094;-71
2023/12/12 10:22:09;;;;;;;58.05;50.92;;;17.00;83.10;;;;;;5078462;28;20562;-71
2023/12/12 10:24:35;;;;;;;33.60;29.80;;;17.00;84.60;;;;;;5085649;28;20051;-70
2023/12/12 10:27:04;;;;;;;39.58;24.95;;;16.90;83.00;;;;;;5051470;28;20051;-65
2023/12/12 10:29:31;;;;;;;35.47;26.50;;;16.90;86.80;;;;;;5097113;28;20152;-67
2023/12/12 10:31:58;;;;;;;29.88;23.42;;;;;;;;;;5081208;28;20115;-70
2023/12/12 10:34:27;;;;;;;18.38;16.38;;;;;;;;;;5098989;28;20051;-70
2023/12/12 10:36:53;;;;;;;16.92;14.27;;;;;;;;;;5065797;28;20471;-71
2023/12/12 10:39:19;;;;;;;23.38;18.88;;;;;;;;;;5101943;28;20044;-69
2023/12/12 10:41:52;;;;;;;27.88;24.88;;;;;;;;;;5089640;28;20493;-71
2023/12/12 10:44:22;;;;;;;42.95;38.67;;;16.50;83.60;;;;;;5085610;28;20051;-71
2023/12/12 10:46:54;;;;;;;59.83;53.92;;;;;;;;;;5071008;28;20493;-66
2023/12/12 10:49:23;;;;;;;61.50;55.70;;;;;;;;;;5080464;28;20048;-71
2023/12/12 10:51:50;;;;;;;57.13;51.50;;;;;;;;;;5097091;28;20055;-71
2023/12/12 10:54:16;;;;;;;52.03;47.15;;;16.70;84.40;;;;;;5101392;28;20036;-71
2023/12/12 10:56:46;;;;;;;48.08;43.53;;;16.80;87.00;;;;;;5076900;28;20036;-71
2023/12/12 10:59:18;;;;;;;43.13;38.97;;;;;;;;;;5079428;28;20040;-72
2023/12/12 11:01:46;;;;;;;37.85;34.22;;;16.90;84.20;;;;;;5115426;28;20048;-71
2023/12/12 11:04:12;;;;;;;37.25;33.65;;;;;;;;;;5065432;28;20031;-71
2023/12/12 11:06:38;;;;;;;27.15;24.55;;;;;;;;;;5090348;28;20131;-71
2023/12/12 11:09:06;;;;;;;27.88;25.08;;;;;;;;;;5075831;28;20059;-71
2023/12/12 11:11:33;;;;;;;28.20;25.60;;;;;;;;;;5077593;28;20059;-71
2023/12/12 11:14:00;;;;;;;27.10;24.48;;;;;;;;;;5073948;28;20059;-72
2023/12/12 11:16:27;;;;;;;23.38;21.08;;;16.80;84.20;;;;;;5096453;28;20043;-71
2023/12/12 11:18:54;;;;;;;20.17;18.08;;;;;;;;;;5074992;28;20050;-72
2023/12/12 11:21:39;;;;;;;21.08;18.88;;;;;;;;;;5084325;28;20035;-71
2023/12/12 11:24:05;;;;;;;21.15;19.02;;;;;;;;;;5059729;28;20055;-71
2023/12/12 11:26:32;;;;;;;22.85;20.15;;;;;;;;;;5105092;27;20047;-70
2023/12/12 11:28:58;;;;;;;149.68;114.90;;;;;;;;;;5066817;28;20075;-69
2023/12/12 11:31:25;;;;;;;100.30;82.30;;;;;;;;;;5054811;28;20123;-70
2023/12/12 11:34:10;;;;;;;73.78;58.25;;;16.80;84.40;;;;;;5094649;28;20072;-70
2023/12/12 11:36:57;;;;;;;63.33;51.45;;;;;;;;;;5086442;28;20073;-70
2023/12/12 11:39:42;;;;;;;49.03;41.42;;;;;;;;;;5053341;28;20051;-71
2023/12/12 11:42:21;;;;;;;42.53;36.95;;;16.20;85.10;;;;;;5058953;28;20135;-71
2023/12/12 11:44:55;;;;;;;37.35;31.45;;;16.20;87.40;;;;;;5076126;28;20055;-70
2023/12/12 11:47:24;;;;;;;39.67;31.50;;;16.10;84.70;;;;;;5062535;28;20116;-71
2023/12/12 11:49:51;;;;;;;33.85;27.67;;;;;;;;;;5073569;28;20109;-71
2023/12/12 11:52:35;;;;;;;28.75;24.83;;;;;;;;;;5079568;28;20149;-70
2023/12/12 11:55:02;;;;;;;27.67;23.55;;;;;;;;;;5095616;28;20039;-71
2023/12/12 11:57:28;;;;;;;26.38;21.00;;;;;;;;;;5089932;28;20039;-69
2023/12/12 11:59:54;;;;;;;22.63;19.17;;;;;;;;;;5057887;28;20394;-69
2023/12/12 12:02:20;;;;;;;22.10;19.48;;;;;;;;;;5066196;28;20040;-71
2023/12/12 12:04:46;;;;;;;20.08;16.95;;;;;;;;;;5058985;28;20050;-69
2023/12/12 12:07:12;;;;;;;19.33;17.13;;;;;;;;;;5075642;28;20028;-71
2023/12/12 12:09:39;;;;;;;18.15;16.17;;;;;;;;;;5058527;28;20044;-71
2023/12/12 12:12:08;;;;;;;16.85;15.05;;;15.40;86.90;;;;;;5059021;28;20409;-72
2023/12/12 12:14:35;;;;;;;18.52;15.73;;;;;;;;;;5058560;28;20122;-71
2023/12/12 12:17:01;;;;;;;18.33;14.30;;;;;;;;;;5060172;28;20043;-71
2023/12/12 12:19:34;;;;;;;17.23;14.85;;;15.20;86.80;;;;;;5104486;28;20370;-71
2023/12/12 12:22:05;;;;;;;16.65;14.82;;;15.20;86.10;;;;;;5080196;28;20044;-66
2023/12/12 12:24:31;;;;;;;31.02;27.77;;;;;;;;;;5073895;28;20103;-71
2023/12/12 12:26:57;;;;;;;25.83;23.02;;;15.30;87.10;;;;;;5058527;28;20097;-71
2023/12/12 12:29:24;;;;;;;24.40;20.20;;;;;;;;;;5092875;28;20040;-70
2023/12/12 12:31:51;;;;;;;22.88;19.33;;;;;;;;;;5100529;28;20127;-70
2023/12/12 12:34:21;;;;;;;19.58;16.98;;;15.60;87.20;;;;;;5091393;28;20040;-70
2023/12/12 12:36:47;;;;;;;19.38;17.17;;;;;;;;;;5058518;28;20054;-70
2023/12/12 12:39:14;;;;;;;18.80;16.17;;;;;;;;;;5074895;28;20071;-71
2023/12/12 12:41:43;;;;;;;18.02;16.13;;;;;;;;;;5088473;28;20069;-69
2023/12/12 12:44:09;;;;;;;25.48;19.23;;;;;;;;;;5104958;27;20452;-69
2023/12/12 12:46:35;;;;;;;35.92;32.55;;;;;;;;;;5063233;28;20043;-69
2023/12/12 12:49:01;;;;;;;35.35;31.85;;;;;;;;;;5074710;28;20056;-68
2023/12/12 12:51:27;;;;;;;29.25;25.27;;;;;;;;;;5093164;28;20047;-69
2023/12/12 12:53:54;;;;;;;28.58;24.90;;;;;;;;;;5077929;28;20048;-69
2023/12/12 12:56:20;;;;;;;24.42;22.00;;;16.80;85.30;;;;;;5079387;28;20046;-68
2023/12/12 12:58:46;;;;;;;24.90;21.60;;;;;;;;;;5082958;28;20092;-68
2023/12/12 13:01:12;;;;;;;23.73;21.23;;;;;;;;;;5075030;28;20032;-69
2023/12/12 13:03:39;;;;;;;22.83;20.38;;;;;;;;;;5074269;28;20055;-69
2023/12/12 13:06:05;;;;;;;23.27;20.17;;;16.90;86.50;;;;;;5073918;28;20044;-68
2023/12/12 13:08:32;;;;;;;23.55;18.95;;;;;;;;;;5075901;28;20051;-66
2023/12/12 13:10:58;;;;;;;20.33;18.20;;;;;;;;;;5092603;28;20792;-69
2023/12/12 13:13:24;;;;;;;19.73;17.73;;;;;;;;;;5092638;28;20040;-68
2023/12/12 13:15:51;;;;;;;20.27;18.02;;;16.70;87.60;;;;;;5094636;28;20055;-69
2023/12/12 13:18:18;;;;;;;18.83;16.83;;;16.60;87.60;;;;;;5110874;28;20065;-69
2023/12/12 13:20:45;;;;;;;18.85;16.88;;;;;;;;;;5110366;28;20047;-69
2023/12/12 13:23:11;;;;;;;18.80;16.15;;;;;;;;;;5101039;28;20040;-71
2023/12/12 13:25:38;;;;;;;17.85;15.55;;;;;;;;;;5111325;28;20050;-69
2023/12/12 13:28:04;;;;;;;17.23;15.43;;;;;;;;;;5092100;28;20101;-70
2023/12/12 13:30:30;;;;;;;17.10;14.50;;;;;;;;;;5084079;28;20126;-70
2023/12/12 13:32:56;;;;;;;16.92;14.43;;;16.70;88.00;;;;;;5102875;28;20452;-70
2023/12/12 13:35:22;;;;;;;17.20;14.57;;;16.60;86.00;;;;;;5093334;28;20040;-71
2023/12/12 13:37:48;;;;;;;16.13;13.88;;;16.50;88.20;;;;;;5104491;28;20064;-66
2023/12/12 13:40:18;;;;;;;17.25;14.63;;;;;;;;;;5113342;28;20430;-66
2023/12/12 13:42:43;;;;;;;16.58;14.00;;;16.60;88.10;;;;;;5108569;28;20371;-66
2023/12/12 13:45:10;;;;;;;15.02;13.43;;;;;;;;;;5092527;28;20044;-65
2023/12/12 13:47:35;;;;;;;15.35;13.60;;;16.60;85.20;;;;;;5092747;28;20089;-65
2023/12/12 13:50:01;;;;;;;15.18;13.57;;;16.70;88.20;;;;;;5098821;28;20126;-70
2023/12/12 13:52:30;;;;;;;14.95;13.43;;;16.60;88.20;;;;;;5093414;28;20043;-70
2023/12/12 13:54:56;;;;;;;14.57;13.07;;;;;;;;;;5110698;28;20036;-70
2023/12/12 13:57:22;;;;;;;15.93;12.85;;;16.70;88.20;;;;;;5112468;28;20047;-70